Time;durP1;ratioP1;P1;durP2;ratioP2;P2;SDS_P1;SDS_P2;PMS_P1;PMS_P2;Temp;Humidity;BMP_temperature;BMP_pressure;BME280_temperature;BME280_humidity;BME280_pressure;Samples;Min_cycle;Max_cycle;Signal;HPM_P1;HPM_P2
2022/11/06 00:01:11;;;;;;;15.03;6.10;;;9.00;1.00;;;;;;5060866;28;20213;-64
2022/11/06 00:03:38;;;;;;;8.80;5.53;;;8.90;1.00;;;;;;5044562;28;20230;-66
2022/11/06 00:09:04;;;;;;;11.63;5.53;;;8.70;1.00;;;;;;5041638;28;20199;-66
2022/11/06 00:11:31;;;;;;;12.37;5.60;;;8.60;1.00;;;;;;5026214;28;20592;-66
2022/11/06 00:13:59;;;;;;;7.33;5.73;;;8.60;10.50;;;;;;5062075;28;20566;-65
2022/11/06 00:16:27;;;;;;;10.97;5.87;;;8.50;26.80;;;;;;5050300;28;20481;-65
2022/11/06 00:18:54;;;;;;;9.53;5.33;;;8.40;46.20;;;;;;5041910;28;20305;-63
2022/11/06 00:21:23;;;;;;;10.07;6.00;;;8.40;45.50;;;;;;5060914;28;20223;-64
2022/11/06 00:23:51;;;;;;;10.33;5.93;;;8.40;69.40;;;;;;5060560;28;20290;-64
2022/11/06 00:26:24;;;;;;;11.13;6.30;;;8.40;64.70;;;;;;5048030;28;20351;-65
2022/11/06 00:28:51;;;;;;;13.40;6.33;;;8.40;68.60;;;;;;5034266;28;20545;-64
2022/11/06 00:31:21;;;;;;;10.00;6.27;;;8.40;44.50;;;;;;5025984;28;20203;-65
2022/11/06 00:33:48;;;;;;;10.10;5.87;;;8.60;18.30;;;;;;5057941;28;20554;-65
2022/11/06 00:36:23;;;;;;;10.47;6.07;;;8.60;9.90;;;;;;5058558;28;20215;-65
2022/11/06 00:38:52;;;;;;;8.37;6.07;;;8.70;1.00;;;;;;5032276;28;20685;-65
2022/11/06 00:41:19;;;;;;;10.90;6.17;;;8.80;1.00;;;;;;5033235;28;20194;-64
2022/11/06 00:43:58;;;;;;;9.40;5.90;;;8.80;1.00;;;;;;5059077;28;20199;-64
2022/11/06 00:46:26;;;;;;;12.10;5.93;;;8.90;1.00;;;;;;5058048;28;20195;-64
2022/11/06 00:48:54;;;;;;;10.00;5.57;;;9.00;1.00;;;;;;5049402;28;20269;-64
2022/11/06 00:51:32;;;;;;;9.73;4.93;;;8.90;1.00;;;;;;5058037;28;20195;-66
2022/11/06 00:54:01;;;;;;;9.37;5.60;;;10.20;1.00;;;;;;5049220;28;20235;-64
2022/11/06 00:56:29;;;;;;;12.73;5.30;;;9.00;1.00;;;;;;5023537;28;20518;-64
2022/11/06 00:58:59;;;;;;;12.90;6.40;;;9.00;1.00;;;;;;5032666;28;20191;-67
2022/11/06 01:01:28;;;;;;;9.33;5.80;;;9.00;1.00;;;;;;5057479;28;20575;-66
2022/11/06 01:04:16;;;;;;;8.83;5.77;;;9.00;1.00;;;;;;5057236;28;20187;-66
2022/11/06 01:06:48;;;;;;;7.90;4.97;;;9.10;1.00;;;;;;5060920;28;20215;-66
2022/11/06 01:09:18;;;;;;;10.20;4.77;;;9.10;1.00;;;;;;5040557;28;20990;-68
2022/11/06 01:11:47;;;;;;;12.63;4.93;;;9.10;1.00;;;;;;5047772;28;20601;-66
2022/11/06 01:14:35;;;;;;;5.93;3.90;;;9.20;1.00;;;;;;5058312;28;20609;-66
2022/11/06 01:17:02;;;;;;;5.67;3.87;;;9.10;1.00;;;;;;5059245;28;20216;-67
2022/11/06 01:19:29;;;;;;;9.80;3.60;;;9.10;1.00;;;;;;5053353;28;20207;-65
2022/11/06 01:21:56;;;;;;;10.80;4.40;;;9.10;1.00;;;;;;5053366;28;20205;-65
2022/11/06 01:24:25;;;;;;;18.13;7.60;;;9.20;1.00;;;;;;5045867;28;20209;-66
2022/11/06 01:26:53;;;;;;;10.10;5.60;;;9.10;1.00;;;;;;5063114;28;20246;-66
2022/11/06 01:29:40;;;;;;;7.20;4.70;;;9.20;1.00;;;;;;5061146;28;20221;-66
2022/11/06 01:32:07;;;;;;;5.77;3.97;;;9.20;1.00;;;;;;5033682;28;20223;-66
2022/11/06 01:34:34;;;;;;;10.30;4.43;;;9.10;1.00;;;;;;5052847;28;20265;-67
2022/11/06 01:37:01;;;;;;;8.20;4.60;;;9.10;1.00;;;;;;5045014;28;20227;-66
2022/11/06 01:39:30;;;;;;;5.40;3.20;;;9.00;1.00;;;;;;5062195;28;20222;-63
2022/11/06 01:42:00;;;;;;;6.90;4.10;;;9.10;1.00;;;;;;5044131;28;20202;-66
2022/11/06 01:44:42;;;;;;;7.77;3.53;;;9.20;1.00;;;;;;5045992;28;20788;-64
2022/11/06 01:47:24;;;;;;;6.37;3.40;;;9.10;1.00;;;;;;5061841;28;20306;-62
2022/11/06 01:49:56;;;;;;;7.07;3.80;;;9.20;1.00;;;;;;5035017;28;20199;-62
2022/11/06 01:52:24;;;;;;;16.10;3.70;;;9.10;1.00;;;;;;5063398;28;20214;-63
2022/11/06 01:54:54;;;;;;;7.73;4.00;;;9.20;1.00;;;;;;5044351;28;20227;-64
2022/11/06 01:57:22;;;;;;;9.67;3.90;;;9.20;1.00;;;;;;5052515;28;20848;-63
2022/11/06 01:59:53;;;;;;;7.27;3.23;;;9.20;1.00;;;;;;5045562;28;20282;-63
2022/11/06 02:02:20;;;;;;;6.30;3.27;;;9.20;1.00;;;;;;5044458;28;20198;-62
2022/11/06 02:04:48;;;;;;;6.97;3.53;;;9.20;1.00;;;;;;5034645;28;20210;-63
2022/11/06 02:07:16;;;;;;;9.20;3.80;;;9.10;1.00;;;;;;5052613;28;20705;-63
2022/11/06 02:09:44;;;;;;;9.93;3.63;;;9.10;1.00;;;;;;5027804;28;20226;-65
2022/11/06 02:12:32;;;;;;;4.60;3.40;;;9.10;1.00;;;;;;5045147;28;20198;-64
2022/11/06 02:15:23;;;;;;;4.33;3.30;;;9.10;1.00;;;;;;5062517;28;20643;-64
2022/11/06 02:17:53;;;;;;;5.73;3.20;;;9.00;1.00;;;;;;5051602;28;20203;-62
2022/11/06 02:20:38;;;;;;;8.97;4.10;;;9.00;1.00;;;;;;5045096;28;20549;-62
2022/11/06 02:23:56;;;;;;;5.97;2.97;;;8.90;1.00;;;;;;5052756;28;20218;-62
2022/11/06 02:26:30;;;;;;;6.57;3.40;;;8.90;1.00;;;;;;5039236;28;20203;-61
2022/11/06 02:29:04;;;;;;;7.30;3.40;;;8.80;1.00;;;;;;5050438;28;20215;-61
2022/11/06 02:31:34;;;;;;;7.57;3.37;;;8.70;1.00;;;;;;5046537;28;20191;-63
2022/11/06 02:34:14;;;;;;;6.77;3.30;;;8.60;1.00;;;;;;5014411;28;20715;-62
2022/11/06 02:37:13;;;;;;;8.53;3.60;;;8.60;1.00;;;;;;5034430;28;20226;-61
2022/11/06 02:39:44;;;;;;;7.27;3.60;;;8.50;1.00;;;;;;5021281;28;20203;-62
2022/11/06 02:42:14;;;;;;;5.50;3.43;;;8.60;1.00;;;;;;5034785;28;20266;-65
2022/11/06 02:44:42;;;;;;;6.33;2.73;;;8.50;1.00;;;;;;5052553;28;20226;-66
2022/11/06 02:47:11;;;;;;;7.13;3.23;;;8.50;1.00;;;;;;5051045;28;20762;-62
2022/11/06 02:50:17;;;;;;;9.17;3.43;;;8.50;1.00;;;;;;5033739;28;20298;-65
2022/11/06 02:52:52;;;;;;;4.50;3.10;;;8.40;1.00;;;;;;4981090;28;20327;-65
2022/11/06 02:55:32;;;;;;;4.93;2.90;;;8.40;1.00;;;;;;5027298;28;20223;-65
2022/11/06 02:58:09;;;;;;;10.70;3.67;;;8.30;1.00;;;;;;5033747;28;20195;-66
2022/11/06 03:00:39;;;;;;;7.77;3.10;;;8.30;7.80;;;;;;5052348;28;20205;-66
2022/11/06 03:03:15;;;;;;;7.03;2.87;;;8.30;7.30;;;;;;5050013;28;20642;-66
2022/11/06 03:05:52;;;;;;;6.83;3.20;;;8.30;1.00;;;;;;5051929;28;20215;-64
2022/11/06 03:08:51;;;;;;;9.17;3.30;;;8.30;6.90;;;;;;5018368;28;20760;-66
2022/11/06 03:11:31;;;;;;;9.40;3.60;;;8.30;1.00;;;;;;5043129;28;20306;-66
2022/11/06 03:14:24;;;;;;;6.70;3.67;;;8.20;5.60;;;;;;5034138;28;20187;-67
2022/11/06 03:17:09;;;;;;;3.43;2.67;;;8.20;10.40;;;;;;5051630;28;20195;-65
2022/11/06 03:19:49;;;;;;;10.37;3.70;;;8.20;5.90;;;;;;5033825;28;20191;-66
2022/11/06 03:22:28;;;;;;;6.77;2.87;;;8.10;22.40;;;;;;5035337;28;20207;-67
2022/11/06 03:25:14;;;;;;;4.77;3.03;;;8.10;23.10;;;;;;5035884;28;20225;-67
2022/11/06 03:28:10;;;;;;;6.33;3.30;;;8.10;23.30;;;;;;5042877;28;20353;-67
2022/11/06 03:30:52;;;;;;;7.53;3.07;;;8.20;13.20;;;;;;5061638;28;20213;-67
2022/11/06 03:33:48;;;;;;;8.83;3.27;;;8.20;19.50;;;;;;5048272;28;20191;-67
2022/11/06 03:36:28;;;;;;;7.73;3.00;;;8.20;17.70;;;;;;5043888;28;20275;-68
2022/11/06 03:39:00;;;;;;;8.40;3.33;;;8.20;17.60;;;;;;5060258;28;20238;-66
2022/11/06 03:41:38;;;;;;;8.50;3.40;;;8.20;14.40;;;;;;5059225;28;20716;-67
2022/11/06 03:44:09;;;;;;;6.77;3.10;;;8.20;18.40;;;;;;5044801;28;20251;-68
2022/11/06 03:46:42;;;;;;;4.57;3.17;;;8.30;16.00;;;;;;5061666;28;20200;-66
2022/11/06 03:49:15;;;;;;;5.53;2.87;;;8.20;23.00;;;;;;5043728;28;20397;-65
2022/11/06 03:51:54;;;;;;;6.60;2.93;;;8.10;42.00;;;;;;5051490;28;20267;-66
2022/11/06 03:54:29;;;;;;;6.47;3.20;;;8.20;29.80;;;;;;5035028;28;20207;-66
2022/11/06 03:57:08;;;;;;;6.13;3.20;;;8.20;42.60;;;;;;5044487;28;20222;-65
2022/11/06 03:59:41;;;;;;;5.67;3.27;;;8.20;46.60;;;;;;5050765;28;20197;-62
2022/11/06 04:02:11;;;;;;;5.90;2.87;;;8.20;42.50;;;;;;5043751;28;20254;-62
2022/11/06 04:05:05;;;;;;;5.03;3.50;;;8.10;62.90;;;;;;5042404;28;20214;-63
2022/11/06 04:07:36;;;;;;;8.93;4.17;;;8.10;75.30;;;;;;5035789;28;20340;-61
2022/11/06 04:15:53;;;;;;;4.80;2.60;;;8.30;31.60;;;;;;5060932;28;20203;-61
2022/11/06 04:18:20;;;;;;;4.57;2.70;;;8.20;50.20;;;;;;5027635;28;20231;-64
2022/11/06 04:26:53;;;;;;;7.10;2.60;;;8.10;99.90;;;;;;5062524;28;20205;-63
2022/11/06 04:29:47;;;;;;;7.07;3.30;;;8.10;99.90;;;;;;5034401;28;20325;-62
2022/11/06 04:32:33;;;;;;;6.77;2.97;;;8.20;99.90;;;;;;5060616;28;20195;-62
2022/11/06 04:35:06;;;;;;;7.13;2.90;;;8.20;99.90;;;;;;5058493;28;20196;-64
2022/11/06 04:38:14;;;;;;;7.97;3.33;;;8.30;92.80;;;;;;5043711;28;20219;-65
2022/11/06 04:41:12;;;;;;;6.90;3.30;;;8.20;99.90;;;;;;5063176;28;20202;-62
2022/11/06 04:43:48;;;;;;;5.90;3.20;;;8.20;99.90;;;;;;5060887;28;20281;-63
2022/11/06 04:46:34;;;;;;;5.17;2.70;;;8.10;99.90;;;;;;5042867;28;20207;-62
2022/11/06 04:49:03;;;;;;;11.53;3.60;;;8.20;99.90;;;;;;5059890;28;20788;-65
2022/11/06 04:51:34;;;;;;;6.17;2.87;;;8.10;99.90;;;;;;5043274;28;20190;-62
2022/11/06 04:54:03;;;;;;;6.70;3.20;;;8.10;99.90;;;;;;5032992;28;20277;-62
2022/11/06 04:56:32;;;;;;;7.90;3.03;;;8.10;99.90;;;;;;5060617;28;20204;-63
2022/11/06 04:59:05;;;;;;;7.03;2.97;;;8.10;99.90;;;;;;5060359;28;20207;-63
2022/11/06 05:01:32;;;;;;;6.37;2.90;;;8.00;99.90;;;;;;5033298;28;20244;-64
2022/11/06 05:03:59;;;;;;;6.47;2.70;;;8.10;99.90;;;;;;5040955;28;20203;-63
2022/11/06 05:06:26;;;;;;;6.47;2.57;;;8.10;99.90;;;;;;5050004;28;20206;-62
2022/11/06 05:08:57;;;;;;;7.87;2.80;;;8.10;99.90;;;;;;5049728;28;20330;-62
2022/11/06 05:11:24;;;;;;;7.27;3.00;;;8.10;99.90;;;;;;5051027;28;20333;-62
2022/11/06 05:13:51;;;;;;;7.17;2.67;;;8.00;99.90;;;;;;5042040;28;20279;-62
2022/11/06 05:16:18;;;;;;;6.60;2.90;;;8.00;99.90;;;;;;5058131;28;20283;-63
2022/11/06 05:18:45;;;;;;;6.60;2.57;;;8.00;99.90;;;;;;5059440;28;20295;-61
2022/11/06 05:23:57;;;;;;;7.10;2.77;;;7.90;99.90;;;;;;5049978;28;20202;-63
2022/11/06 05:26:25;;;;;;;10.37;3.37;;;8.00;99.90;;;;;;5060533;28;20277;-62
2022/11/06 05:28:52;;;;;;;4.83;2.53;;;8.00;99.90;;;;;;5060007;28;20245;-62
2022/11/06 05:31:19;;;;;;;5.70;3.00;;;7.90;99.90;;;;;;5060840;28;20197;-62
2022/11/06 05:33:45;;;;;;;4.80;3.27;;;7.90;99.90;;;;;;5050702;28;20206;-62
2022/11/06 05:36:12;;;;;;;6.10;2.70;;;8.00;99.90;;;;;;5058661;28;20225;-63
2022/11/06 05:38:39;;;;;;;5.40;2.97;;;8.00;99.90;;;;;;5059913;28;20203;-64
2022/11/06 05:41:06;;;;;;;6.47;2.83;;;7.90;99.90;;;;;;5041532;28;20203;-66
2022/11/06 05:43:33;;;;;;;6.70;2.80;;;7.90;99.90;;;;;;5049103;28;20317;-63
2022/11/06 05:46:00;;;;;;;4.70;2.43;;;8.00;99.90;;;;;;5046512;28;20199;-63
2022/11/06 05:48:28;;;;;;;6.57;2.70;;;8.10;99.90;;;;;;5040794;28;20273;-63
2022/11/06 05:51:05;;;;;;;6.83;2.87;;;8.10;99.90;;;;;;5046510;28;20674;-61
2022/11/06 05:53:34;;;;;;;6.83;3.00;;;8.00;99.90;;;;;;5059849;28;20616;-63
2022/11/06 05:56:02;;;;;;;5.10;2.20;;;7.90;99.90;;;;;;5043045;28;21341;-63
2022/11/06 05:58:30;;;;;;;11.03;2.63;;;8.00;99.90;;;;;;5049743;28;20218;-62
2022/11/06 06:00:57;;;;;;;9.53;3.00;;;8.00;99.90;;;;;;5047742;28;20229;-62
2022/11/06 06:03:25;;;;;;;5.43;2.50;;;8.00;99.90;;;;;;5042608;28;20203;-63
2022/11/06 06:05:52;;;;;;;5.73;2.20;;;8.00;99.90;;;;;;5043513;28;20202;-62
2022/11/06 06:08:19;;;;;;;8.83;2.80;;;7.90;99.90;;;;;;5045399;28;20212;-62
2022/11/06 06:10:47;;;;;;;6.53;2.37;;;8.00;99.90;;;;;;5051050;28;20191;-66
2022/11/06 06:13:14;;;;;;;9.13;2.87;;;8.00;99.90;;;;;;5052139;28;20206;-63
2022/11/06 06:15:41;;;;;;;7.43;2.57;;;7.90;99.90;;;;;;5043038;28;20273;-62
2022/11/06 06:18:09;;;;;;;8.27;2.63;;;7.90;99.90;;;;;;5062934;28;20246;-64
2022/11/06 06:20:36;;;;;;;5.30;2.60;;;7.80;99.90;;;;;;5045285;28;20633;-63
2022/11/06 06:23:04;;;;;;;6.67;2.80;;;7.80;99.90;;;;;;5043808;28;20289;-62
2022/11/06 06:25:35;;;;;;;6.53;3.10;;;7.80;99.90;;;;;;5035446;28;20424;-62
2022/11/06 06:28:02;;;;;;;5.67;2.70;;;7.80;99.90;;;;;;5045175;28;20250;-64
2022/11/06 06:30:29;;;;;;;7.53;3.07;;;7.60;99.90;;;;;;5052569;28;20200;-62
2022/11/06 06:33:01;;;;;;;5.00;2.70;;;7.50;99.90;;;;;;5052493;28;20191;-63
2022/11/06 06:35:28;;;;;;;8.23;2.83;;;7.50;99.90;;;;;;5063133;28;20214;-63
2022/11/06 06:37:55;;;;;;;4.57;2.60;;;7.50;99.90;;;;;;5046519;28;20214;-63
2022/11/06 06:40:22;;;;;;;7.43;2.90;;;7.40;99.90;;;;;;5046026;28;20576;-63
2022/11/06 06:42:49;;;;;;;6.83;3.30;;;7.50;99.90;;;;;;5036222;28;20249;-63
2022/11/06 06:45:17;;;;;;;11.30;4.00;;;7.60;99.90;;;;;;5044208;28;20338;-63
2022/11/06 06:47:43;;;;;;;10.70;5.47;;;7.60;99.90;;;;;;5062322;28;20294;-63
2022/11/06 06:50:10;;;;;;;8.50;3.67;;;7.60;99.90;;;;;;5061223;28;20199;-61
2022/11/06 06:52:39;;;;;;;9.50;4.30;;;7.70;99.90;;;;;;5060818;28;20539;-62
2022/11/06 06:55:07;;;;;;;9.77;4.30;;;7.70;99.90;;;;;;5051681;28;20756;-64
2022/11/06 06:57:34;;;;;;;12.87;9.43;;;7.70;99.90;;;;;;5063225;28;20746;-61
2022/11/06 07:00:00;;;;;;;15.13;7.63;;;7.70;99.90;;;;;;5047755;28;20207;-60
2022/11/06 07:02:27;;;;;;;37.57;21.97;;;7.70;99.90;;;;;;5048653;28;20890;-62
2022/11/06 07:04:55;;;;;;;27.43;16.33;;;7.80;99.90;;;;;;5026839;28;20210;-63
2022/11/06 07:07:21;;;;;;;14.20;6.87;;;7.80;99.90;;;;;;5034007;28;20294;-62
2022/11/06 07:09:48;;;;;;;7.57;3.87;;;7.80;99.90;;;;;;5061092;28;20226;-61
2022/11/06 07:12:15;;;;;;;7.97;2.90;;;7.80;99.90;;;;;;5043191;28;20834;-63
2022/11/06 07:14:42;;;;;;;5.30;3.20;;;7.80;99.90;;;;;;5033918;28;20208;-64
2022/11/06 07:17:09;;;;;;;12.47;2.93;;;7.90;99.90;;;;;;5049449;28;20199;-62
2022/11/06 07:19:36;;;;;;;4.57;2.90;;;7.90;99.90;;;;;;5050675;28;20199;-65
2022/11/06 07:22:03;;;;;;;7.97;2.80;;;8.00;99.90;;;;;;5062173;28;20285;-62
2022/11/06 07:24:30;;;;;;;5.07;2.57;;;8.10;99.90;;;;;;5045709;28;20210;-62
2022/11/06 07:26:57;;;;;;;7.33;2.97;;;8.20;99.90;;;;;;5059300;28;20265;-61
2022/11/06 07:29:24;;;;;;;8.47;2.83;;;8.30;99.90;;;;;;5039972;28;20211;-61
2022/11/06 07:31:51;;;;;;;6.67;3.20;;;8.40;99.90;;;;;;5057445;28;20198;-62
2022/11/06 07:34:18;;;;;;;7.63;2.27;;;8.40;99.90;;;;;;5039504;28;20226;-62
2022/11/06 07:36:45;;;;;;;7.20;2.53;;;8.50;90.50;;;;;;5059328;28;20203;-63
2022/11/06 07:39:12;;;;;;;11.07;2.87;;;8.50;97.80;;;;;;5060086;28;20191;-63
2022/11/06 07:41:40;;;;;;;9.93;2.93;;;8.50;90.50;;;;;;5041438;28;20260;-63
2022/11/06 07:44:07;;;;;;;6.60;2.20;;;8.60;63.10;;;;;;5059528;28;20289;-62
2022/11/06 07:46:34;;;;;;;9.17;2.70;;;8.70;14.90;;;;;;5060875;28;20190;-63
2022/11/06 07:49:01;;;;;;;8.10;2.30;;;8.70;12.10;;;;;;5048393;28;20691;-62
2022/11/06 07:51:28;;;;;;;7.53;2.67;;;8.80;13.60;;;;;;5024563;28;20191;-63
2022/11/06 07:53:55;;;;;;;5.77;2.33;;;8.80;1.00;;;;;;5058731;28;20191;-61
2022/11/06 07:56:21;;;;;;;7.97;2.53;;;8.90;1.00;;;;;;5042266;28;20191;-62
2022/11/06 07:58:48;;;;;;;9.50;2.73;;;9.00;1.00;;;;;;5061263;28;20209;-63
2022/11/06 08:01:16;;;;;;;7.63;2.30;;;9.00;1.00;;;;;;5042223;28;20196;-65
2022/11/06 08:03:45;;;;;;;7.57;2.33;;;9.10;1.00;;;;;;5061092;28;20673;-61
2022/11/06 08:06:12;;;;;;;7.67;2.50;;;9.20;1.00;;;;;;5043573;28;20277;-61
2022/11/06 08:08:39;;;;;;;5.90;2.40;;;9.30;1.00;;;;;;5032833;28;20219;-60
2022/11/06 08:11:08;;;;;;;6.13;2.33;;;9.30;1.00;;;;;;5063296;28;20244;-60
2022/11/06 08:13:36;;;;;;;7.40;2.40;;;9.30;1.00;;;;;;5050339;28;20203;-62
2022/11/06 08:16:13;;;;;;;5.77;2.13;;;9.40;1.00;;;;;;5061262;28;20758;-62
2022/11/06 08:18:40;;;;;;;5.43;2.60;;;9.50;1.00;;;;;;5050800;28;20642;-62
2022/11/06 08:21:07;;;;;;;5.53;2.50;;;9.60;1.00;;;;;;5026375;28;20217;-63
2022/11/06 08:23:35;;;;;;;7.33;2.13;;;9.60;1.00;;;;;;5041969;28;20227;-63
2022/11/06 08:26:06;;;;;;;3.97;2.00;;;9.70;1.00;;;;;;5048332;28;20206;-64
2022/11/06 08:28:33;;;;;;;4.27;2.20;;;9.80;1.00;;;;;;5028068;28;20261;-64
2022/11/06 08:31:05;;;;;;;5.03;2.20;;;9.80;1.00;;;;;;5049592;28;20225;-64
2022/11/06 08:33:33;;;;;;;6.67;2.67;;;9.90;1.00;;;;;;5063134;28;20409;-62
2022/11/06 08:36:05;;;;;;;6.43;2.30;;;10.00;1.00;;;;;;5059872;28;21341;-59
2022/11/06 08:38:32;;;;;;;4.10;1.97;;;10.10;1.00;;;;;;5042925;28;20190;-63
2022/11/06 08:41:06;;;;;;;11.40;2.43;;;10.20;1.00;;;;;;5061066;28;20203;-64
2022/11/06 08:43:33;;;;;;;6.17;1.70;;;10.40;1.00;;;;;;5060265;28;20778;-64
2022/11/06 08:46:00;;;;;;;8.53;2.03;;;10.50;1.00;;;;;;5043540;28;20233;-62
2022/11/06 08:48:27;;;;;;;5.90;2.20;;;10.60;1.00;;;;;;5044549;28;20199;-64
2022/11/06 08:50:54;;;;;;;4.00;1.90;;;10.70;1.00;;;;;;5025980;28;20220;-67
2022/11/06 08:53:21;;;;;;;4.80;1.90;;;10.90;1.00;;;;;;5030630;28;20200;-62
2022/11/06 08:55:48;;;;;;;3.10;1.90;;;12.40;1.00;;;;;;5060025;28;20199;-64
2022/11/06 08:58:15;;;;;;;7.20;2.13;;;15.00;1.00;;;;;;5051179;28;20200;-64
2022/11/06 09:00:43;;;;;;;5.30;2.20;;;16.60;1.00;;;;;;5042549;28;20406;-63
2022/11/06 09:03:12;;;;;;;6.00;2.00;;;17.30;1.00;;;;;;5061494;28;20198;-64
2022/11/06 09:05:41;;;;;;;5.57;2.40;;;17.60;1.00;;;;;;5059436;28;20204;-63
2022/11/06 09:08:09;;;;;;;6.18;2.05;;;17.50;1.00;;;;;;5042777;28;20245;-64
2022/11/06 09:10:38;;;;;;;5.35;2.08;;;17.40;1.00;;;;;;5044739;28;20246;-66
2022/11/06 09:13:05;;;;;;;5.28;2.00;;;17.80;1.00;;;;;;5049204;28;20685;-65
2022/11/06 09:15:32;;;;;;;4.60;1.88;;;18.70;1.00;;;;;;5041994;28;20199;-64
2022/11/06 09:17:59;;;;;;;4.63;1.60;;;17.90;1.00;;;;;;5044310;28;20195;-64
2022/11/06 09:20:27;;;;;;;4.15;2.25;;;18.20;1.00;;;;;;5058510;28;20201;-65
2022/11/06 09:22:58;;;;;;;6.32;2.13;;;17.80;1.00;;;;;;5026435;28;20194;-65
2022/11/06 09:25:25;;;;;;;5.90;2.28;;;17.90;1.00;;;;;;5042978;28;20199;-64
2022/11/06 09:27:53;;;;;;;8.10;2.95;;;19.80;1.00;;;;;;5050338;28;20243;-67
2022/11/06 09:30:30;;;;;;;3.33;2.00;;;20.10;1.00;;;;;;5047336;28;20205;-65
2022/11/06 09:33:00;;;;;;;5.35;2.30;;;19.70;1.00;;;;;;5042543;28;20694;-66
2022/11/06 09:35:30;;;;;;;5.38;2.60;;;19.10;1.00;;;;;;5050900;28;20195;-63
2022/11/06 09:38:05;;;;;;;3.38;1.63;;;20.30;1.00;;;;;;5042682;28;20250;-64
2022/11/06 09:40:40;;;;;;;4.05;1.73;;;20.70;1.00;;;;;;5062749;28;20191;-64
2022/11/06 09:43:30;;;;;;;3.75;1.65;;;19.10;1.00;;;;;;5066698;28;20284;-65
2022/11/06 09:46:27;;;;;;;5.07;1.75;;;19.20;1.00;;;;;;5047492;28;20203;-64
2022/11/06 09:49:19;;;;;;;5.18;2.55;;;19.20;1.00;;;;;;5065001;28;20264;-65
2022/11/06 09:52:04;;;;;;;3.33;1.73;;;19.30;1.00;;;;;;5064629;28;20230;-63
2022/11/06 09:55:03;;;;;;;4.35;1.60;;;19.30;1.00;;;;;;5047158;28;20191;-63
2022/11/06 09:57:43;;;;;;;5.32;2.00;;;19.80;1.00;;;;;;5030015;28;20639;-64
2022/11/06 10:00:13;;;;;;;8.05;3.53;;;20.00;1.00;;;;;;5065869;28;20198;-64
2022/11/06 10:02:50;;;;;;;6.85;4.05;;;18.00;1.00;;;;;;5050026;28;20202;-63
2022/11/06 10:05:32;;;;;;;5.90;3.78;;;16.90;1.00;;;;;;5064761;28;20230;-63
2022/11/06 10:08:22;;;;;;;9.40;5.25;;;18.70;1.00;;;;;;5044154;28;20285;-62
2022/11/06 10:11:04;;;;;;;8.43;2.45;;;20.50;1.00;;;;;;5048834;28;20225;-63
2022/11/06 10:13:33;;;;;;;6.47;3.78;;;18.90;1.00;;;;;;5047258;28;20698;-64
2022/11/06 10:16:07;;;;;;;10.75;6.28;;;18.50;1.00;;;;;;5054403;28;20195;-64
2022/11/06 10:18:53;;;;;;;5.97;2.80;;;16.50;1.00;;;;;;5052071;28;20756;-65
2022/11/06 10:21:29;;;;;;;5.25;2.03;;;14.80;1.00;;;;;;5047318;28;20183;-63
2022/11/06 10:24:10;;;;;;;4.80;2.10;;;14.10;1.00;;;;;;5045802;28;20198;-62
2022/11/06 10:26:40;;;;;;;7.72;2.97;;;13.90;1.00;;;;;;5062268;28;20190;-64
2022/11/06 10:29:21;;;;;;;5.18;2.28;;;13.80;1.00;;;;;;5061741;28;20249;-64
2022/11/06 10:32:22;;;;;;;6.07;2.63;;;13.90;1.00;;;;;;5066312;28;20241;-62
2022/11/06 10:35:01;;;;;;;4.97;2.70;;;13.90;1.00;;;;;;5064375;28;20191;-64
2022/11/06 10:37:43;;;;;;;6.57;2.50;;;14.00;1.00;;;;;;5047574;28;20287;-64
2022/11/06 10:40:24;;;;;;;6.90;2.47;;;15.00;1.00;;;;;;5062031;28;20298;-64
2022/11/06 10:43:10;;;;;;;5.70;3.38;;;16.50;1.00;;;;;;5049695;28;20269;-63
2022/11/06 10:45:43;;;;;;;4.40;1.70;;;15.90;1.00;;;;;;5045234;28;20619;-66
2022/11/06 10:48:25;;;;;;;4.35;1.70;;;14.80;1.00;;;;;;5063594;28;20278;-64
2022/11/06 10:51:29;;;;;;;5.68;2.42;;;14.20;1.00;;;;;;5047622;28;20214;-66
2022/11/06 10:54:30;;;;;;;4.43;2.87;;;13.90;1.00;;;;;;5037564;28;20245;-64
2022/11/06 10:57:27;;;;;;;4.23;2.20;;;14.10;1.00;;;;;;5043871;28;20285;-65
2022/11/06 10:59:55;;;;;;;3.20;2.07;;;13.70;1.00;;;;;;5060615;28;20192;-65
2022/11/06 11:02:34;;;;;;;8.00;2.83;;;13.60;1.00;;;;;;5046317;28;20282;-67
2022/11/06 11:05:09;;;;;;;7.87;2.87;;;13.30;1.00;;;;;;5062682;28;20206;-66
2022/11/06 11:07:36;;;;;;;8.60;2.87;;;13.50;1.00;;;;;;5063199;28;20594;-65
2022/11/06 11:10:22;;;;;;;4.33;1.80;;;13.90;1.00;;;;;;5044562;28;20222;-65
2022/11/06 11:12:52;;;;;;;7.27;2.63;;;13.90;1.00;;;;;;5061471;28;20285;-65
2022/11/06 11:15:21;;;;;;;6.17;2.37;;;14.10;1.00;;;;;;5044409;28;20188;-65
2022/11/06 11:18:12;;;;;;;6.40;2.43;;;14.30;1.00;;;;;;5041627;28;20639;-65
2022/11/06 11:20:42;;;;;;;4.23;2.43;;;14.30;1.00;;;;;;5059594;28;20195;-66
2022/11/06 11:23:21;;;;;;;5.10;2.15;;;14.40;1.00;;;;;;5026569;28;20638;-64
2022/11/06 11:25:56;;;;;;;6.93;3.35;;;14.30;1.00;;;;;;5043438;28;20210;-65
2022/11/06 11:28:36;;;;;;;4.65;1.90;;;14.40;1.00;;;;;;5062159;28;20241;-68
2022/11/06 11:31:08;;;;;;;3.97;2.58;;;14.30;1.00;;;;;;5042659;28;20220;-67
2022/11/06 11:33:38;;;;;;;4.07;1.95;;;14.60;1.00;;;;;;5059587;28;20196;-66
2022/11/06 11:36:07;;;;;;;5.03;2.20;;;14.20;1.00;;;;;;5028294;28;20246;-66
2022/11/06 11:38:40;;;;;;;8.57;2.10;;;13.90;1.00;;;;;;5045495;28;20670;-66
2022/11/06 11:41:20;;;;;;;5.77;2.57;;;13.40;1.00;;;;;;5048828;28;20272;-69
2022/11/06 11:44:15;;;;;;;4.73;2.03;;;13.60;1.00;;;;;;5060148;28;20259;-65
2022/11/06 11:46:52;;;;;;;6.53;2.47;;;13.80;1.00;;;;;;5060278;28;20248;-66
2022/11/06 11:49:33;;;;;;;8.77;2.63;;;13.50;1.00;;;;;;5060822;28;20229;-66
2022/11/06 11:52:03;;;;;;;4.87;2.23;;;13.50;1.00;;;;;;5049312;28;20191;-65
2022/11/06 11:54:33;;;;;;;5.57;2.20;;;14.10;1.00;;;;;;5029128;28;20199;-65
2022/11/06 11:57:05;;;;;;;7.00;2.88;;;15.10;1.00;;;;;;5034962;28;20194;-67
2022/11/06 11:59:55;;;;;;;5.88;2.40;;;15.90;1.00;;;;;;5063392;28;20326;-65
2022/11/06 12:02:28;;;;;;;5.95;2.97;;;15.10;1.00;;;;;;5059523;28;20655;-66
2022/11/06 12:05:23;;;;;;;4.80;2.25;;;14.30;1.00;;;;;;5059908;28;20187;-66
2022/11/06 12:07:56;;;;;;;4.47;2.10;;;13.70;1.00;;;;;;5034291;28;20227;-67
2022/11/06 12:10:36;;;;;;;3.87;2.10;;;13.60;1.00;;;;;;5059768;28;20215;-66
2022/11/06 12:13:06;;;;;;;8.57;2.57;;;13.60;1.00;;;;;;5033585;28;20202;-66
2022/11/06 12:15:44;;;;;;;9.30;3.88;;;14.50;1.00;;;;;;5044236;28;20206;-67
2022/11/06 12:18:22;;;;;;;9.57;2.90;;;14.30;1.00;;;;;;5062212;28;20822;-66
2022/11/06 12:21:10;;;;;;;5.10;2.53;;;13.90;1.00;;;;;;5059311;28;20205;-66
2022/11/06 12:23:46;;;;;;;5.87;2.30;;;13.70;1.00;;;;;;5045362;28;20294;-68
2022/11/06 12:26:34;;;;;;;6.30;2.77;;;13.70;1.00;;;;;;5027889;28;20217;-64
2022/11/06 12:29:10;;;;;;;3.67;1.93;;;13.80;1.00;;;;;;5060519;28;20198;-64
2022/11/06 12:31:41;;;;;;;5.30;2.70;;;13.70;1.00;;;;;;5061390;28;20268;-65
2022/11/06 12:34:23;;;;;;;6.73;2.03;;;14.00;1.00;;;;;;5049528;28;20698;-65
2022/11/06 12:37:21;;;;;;;5.57;2.40;;;14.10;1.00;;;;;;5059912;28;20257;-65
2022/11/06 12:40:13;;;;;;;9.03;2.77;;;14.00;1.00;;;;;;5041908;28;20229;-65
2022/11/06 12:42:55;;;;;;;3.10;1.80;;;13.90;1.00;;;;;;5032706;28;20671;-64
2022/11/06 12:45:30;;;;;;;6.03;1.83;;;13.60;1.00;;;;;;5059307;28;20230;-64
2022/11/06 12:48:11;;;;;;;4.87;2.07;;;13.50;1.00;;;;;;5042775;28;20194;-67
2022/11/06 12:50:59;;;;;;;4.27;1.73;;;13.50;1.00;;;;;;5048276;28;20244;-63
2022/11/06 12:54:00;;;;;;;4.97;2.13;;;13.60;1.00;;;;;;5049853;28;20206;-66
2022/11/06 12:56:39;;;;;;;3.57;1.77;;;13.50;1.00;;;;;;5059180;28;20561;-65
2022/11/06 12:59:48;;;;;;;4.13;1.83;;;13.60;1.00;;;;;;5043850;28;20195;-65
2022/11/06 13:02:31;;;;;;;6.50;2.30;;;13.80;1.00;;;;;;5030413;28;20204;-65
2022/11/06 13:05:27;;;;;;;4.57;1.97;;;13.90;1.00;;;;;;5060166;28;20191;-66
2022/11/06 13:08:04;;;;;;;6.47;1.90;;;13.80;1.00;;;;;;5042402;28;20277;-65
2022/11/06 13:10:37;;;;;;;6.93;2.10;;;13.50;1.00;;;;;;5058935;28;20230;-63
2022/11/06 13:13:42;;;;;;;4.67;1.70;;;13.30;1.00;;;;;;5044573;28;20293;-65
2022/11/06 13:16:23;;;;;;;4.13;2.10;;;13.20;1.00;;;;;;5058359;28;20194;-64
2022/11/06 13:18:57;;;;;;;4.00;1.83;;;13.10;1.00;;;;;;5059815;28;20584;-64
2022/11/06 13:21:59;;;;;;;3.77;1.70;;;13.10;1.00;;;;;;5060316;28;20199;-63
2022/11/06 13:24:46;;;;;;;4.63;1.80;;;13.00;1.00;;;;;;5047178;28;21022;-66
2022/11/06 13:27:31;;;;;;;6.13;2.00;;;13.10;1.00;;;;;;5059666;28;20231;-65
2022/11/06 13:30:14;;;;;;;3.37;1.50;;;13.20;1.00;;;;;;5042613;28;20279;-70
2022/11/06 13:33:03;;;;;;;4.37;1.70;;;13.10;1.00;;;;;;5045106;28;20191;-70
2022/11/06 13:35:32;;;;;;;3.20;1.70;;;13.00;1.00;;;;;;5042597;28;20207;-71
2022/11/06 13:38:01;;;;;;;5.43;1.60;;;13.00;1.00;;;;;;5052853;28;20678;-70
2022/11/06 13:40:39;;;;;;;2.50;1.70;;;12.90;1.00;;;;;;5048004;28;20266;-71
2022/11/06 13:43:09;;;;;;;7.27;1.87;;;12.90;1.00;;;;;;5063453;28;20201;-71
2022/11/06 13:46:04;;;;;;;4.90;1.93;;;13.00;1.00;;;;;;5051498;28;20187;-71
2022/11/06 13:48:47;;;;;;;4.83;1.57;;;12.90;1.00;;;;;;5048909;28;20187;-72
2022/11/06 13:51:33;;;;;;;4.53;1.60;;;12.90;1.00;;;;;;5066782;28;20215;-69
2022/11/06 13:54:23;;;;;;;4.30;2.30;;;12.80;1.00;;;;;;5043188;28;20253;-68